createdAt,value
2017-08-09T19:38:00.337Z,19.53
2017-08-09T19:40:27.085Z,18.50
2017-08-09T19:42:53.832Z,18.20
2017-08-09T19:45:20.597Z,18.30
2017-08-09T19:47:47.357Z,18.47
2017-08-09T19:50:14.087Z,18.30
2017-08-09T19:52:40.873Z,18.00
2017-08-09T19:55:07.628Z,17.57
2017-08-09T19:57:34.408Z,20.00
2017-08-09T20:00:01.152Z,18.60
2017-08-09T20:02:27.918Z,19.95
2017-08-09T20:04:54.684Z,18.27
2017-08-09T20:07:21.485Z,18.70
2017-08-09T20:09:48.215Z,20.33
2017-08-09T20:12:14.985Z,19.77
2017-08-09T20:14:41.750Z,19.27
2017-08-09T20:17:08.480Z,19.57
2017-08-09T20:19:35.232Z,18.70
2017-08-09T20:22:01.988Z,19.33
2017-08-09T20:24:28.718Z,18.83
2017-08-09T20:26:55.473Z,20.13
2017-08-09T20:29:22.223Z,18.37
2017-08-09T20:31:49.018Z,18.63
2017-08-09T20:34:15.835Z,19.97
2017-08-09T20:36:42.668Z,18.93
2017-08-09T20:39:09.426Z,18.77
2017-08-09T20:41:37.199Z,19.43
2017-08-09T20:44:03.955Z,19.80
2017-08-09T20:46:30.708Z,19.87
2017-08-09T20:48:57.445Z,19.70
2017-08-09T20:51:24.186Z,18.50
2017-08-09T20:53:50.908Z,19.90
2017-08-09T20:56:17.668Z,19.07
2017-08-09T20:58:44.397Z,19.87
2017-08-09T21:01:11.117Z,20.20
2017-08-09T21:03:37.853Z,19.63
2017-08-09T21:06:04.605Z,19.30
2017-08-09T21:08:31.335Z,20.83
2017-08-09T21:10:58.065Z,19.83
2017-08-09T21:13:24.786Z,20.47
2017-08-09T21:15:51.529Z,20.20
2017-08-09T21:18:18.291Z,19.60
2017-08-09T21:20:45.039Z,19.20
2017-08-09T21:23:11.772Z,20.30
2017-08-09T21:25:38.515Z,20.43
2017-08-09T21:28:05.263Z,20.40
2017-08-09T21:30:32.030Z,21.07
2017-08-09T21:32:58.799Z,20.50
2017-08-09T21:35:25.534Z,19.73
2017-08-09T21:37:52.279Z,21.23
2017-08-09T21:40:19.011Z,19.17
2017-08-09T21:42:45.740Z,19.67
2017-08-09T21:45:12.456Z,18.97
2017-08-09T21:47:39.196Z,20.90
2017-08-09T21:50:05.945Z,20.27
2017-08-09T21:52:32.709Z,19.57
2017-08-09T21:54:59.432Z,19.00
2017-08-09T21:57:26.172Z,20.80
2017-08-09T21:59:52.898Z,18.97
2017-08-09T22:02:19.628Z,20.60
2017-08-09T22:04:46.380Z,21.50
2017-08-09T22:07:13.098Z,21.20
2017-08-09T22:09:39.821Z,21.33
2017-08-09T22:12:06.561Z,21.07
2017-08-09T22:14:33.296Z,20.57
2017-08-09T22:17:00.036Z,22.00
2017-08-09T22:19:26.758Z,19.50
2017-08-09T22:21:53.508Z,22.10
2017-08-09T22:24:20.239Z,21.00
2017-08-09T22:26:46.973Z,21.63
2017-08-09T22:29:13.698Z,19.90
2017-08-09T22:34:13.596Z,19.53
2017-08-09T22:36:40.343Z,22.00
2017-08-09T22:39:07.077Z,21.00
2017-08-09T22:41:33.798Z,21.40
2017-08-09T22:44:00.533Z,24.07
2017-08-09T22:46:27.276Z,21.30
2017-08-09T22:48:54.006Z,22.70
2017-08-09T22:51:20.739Z,23.70
2017-08-09T22:53:47.469Z,21.70
2017-08-09T22:56:14.228Z,21.63
2017-08-09T22:58:40.976Z,21.03
2017-08-09T23:01:07.717Z,21.67
2017-08-09T23:03:34.474Z,22.07
2017-08-09T23:06:01.225Z,22.30
2017-08-09T23:08:27.992Z,21.10
2017-08-09T23:10:54.718Z,21.63
2017-08-09T23:13:21.457Z,22.30
2017-08-09T23:15:48.180Z,21.70
2017-08-09T23:18:14.925Z,20.00
2017-08-09T23:20:41.664Z,21.47
2017-08-09T23:23:08.384Z,20.60
2017-08-09T23:25:35.138Z,21.93
2017-08-09T23:28:01.873Z,22.20
2017-08-09T23:30:28.620Z,22.37
2017-08-09T23:32:55.351Z,20.40
2017-08-09T23:35:22.071Z,21.43
2017-08-09T23:37:48.803Z,23.23
2017-08-09T23:40:15.547Z,22.30
2017-08-09T23:42:42.277Z,23.47
2017-08-09T23:45:09.009Z,21.53
2017-08-09T23:47:35.737Z,23.13
2017-08-09T23:50:02.465Z,23.10
2017-08-09T23:52:29.226Z,22.47
2017-08-09T23:54:55.971Z,21.73
2017-08-09T23:57:22.713Z,21.30
2017-08-09T23:59:49.451Z,23.07
